Time;durP1;ratioP1;P1;durP2;ratioP2;P2;SDS_P1;SDS_P2;PMS_P1;PMS_P2;Temp;Humidity;BMP_temperature;BMP_pressure;BME280_temperature;BME280_humidity;BME280_pressure;Samples;Min_cycle;Max_cycle;Signal;HPM_P1;HPM_P2
2022/09/01 00:01:26;;;;;;;2.70;0.70;;;14.40;99.90;;;;;;6096810;23;20014;-93
2022/09/01 00:03:54;;;;;;;1.70;0.63;;;14.40;99.90;;;;;;6097467;23;20022;-93
2022/09/01 00:06:21;;;;;;;2.50;0.90;;;14.40;99.90;;;;;;6098026;23;20022;-94
2022/09/01 00:08:49;;;;;;;1.65;0.60;;;14.40;99.90;;;;;;6097897;23;20025;-93
2022/09/01 00:11:14;;;;;;;3.63;0.80;;;14.40;99.90;;;;;;6097577;23;20049;-94
2022/09/01 00:13:40;;;;;;;1.40;0.77;;;14.40;99.90;;;;;;6097551;23;20022;-94
2022/09/01 00:16:06;;;;;;;1.80;0.70;;;14.40;99.90;;;;;;6098562;23;20066;-93
2022/09/01 00:18:33;;;;;;;2.42;0.70;;;14.40;99.90;;;;;;6098650;23;20137;-92
2022/09/01 00:20:59;;;;;;;2.08;0.50;;;14.30;99.90;;;;;;6099679;23;20014;-93
2022/09/01 00:23:26;;;;;;;3.42;0.70;;;14.50;99.90;;;;;;6098128;23;20110;-94
2022/09/01 00:25:52;;;;;;;2.08;0.70;;;14.30;99.90;;;;;;6097585;23;20018;-93
2022/09/01 00:28:18;;;;;;;2.92;0.60;;;14.30;99.90;;;;;;6097752;23;20399;-92
2022/09/01 00:30:44;;;;;;;1.60;0.70;;;14.40;99.90;;;;;;6097630;23;20029;-93
2022/09/01 00:33:10;;;;;;;6.55;0.57;;;14.30;99.90;;;;;;6096893;23;20010;-94
2022/09/01 00:35:35;;;;;;;1.10;0.60;;;14.40;99.90;;;;;;6097759;23;20017;-93
2022/09/01 00:38:01;;;;;;;1.20;0.52;;;14.30;99.90;;;;;;6097324;23;20028;-93
2022/09/01 00:40:28;;;;;;;5.95;0.68;;;14.30;99.90;;;;;;6096922;23;20025;-93
2022/09/01 00:42:53;;;;;;;4.80;0.63;;;14.30;99.90;;;;;;6099237;23;20021;-94
2022/09/01 00:45:20;;;;;;;1.85;0.75;;;14.30;99.90;;;;;;6098557;23;20022;-93
2022/09/01 00:47:47;;;;;;;1.52;0.60;;;14.30;99.90;;;;;;6097490;23;20022;-94
2022/09/01 00:50:16;;;;;;;3.88;0.50;;;14.30;99.90;;;;;;6097945;23;20053;-94
2022/09/01 00:52:46;;;;;;;2.80;0.82;;;14.30;99.90;;;;;;6097112;23;20029;-94
2022/09/01 00:55:16;;;;;;;5.40;0.60;;;14.30;99.90;;;;;;6097612;23;20049;-93
2022/09/01 00:57:43;;;;;;;2.53;0.50;;;14.30;99.90;;;;;;6097122;23;20022;-93
2022/09/01 01:00:12;;;;;;;2.42;0.68;;;14.30;99.90;;;;;;6097863;23;20058;-94
2022/09/01 01:02:41;;;;;;;2.90;0.93;;;14.30;99.90;;;;;;6099508;23;20014;-93
2022/09/01 01:05:07;;;;;;;5.32;0.68;;;14.30;99.90;;;;;;6098087;23;20032;-93
2022/09/01 01:07:37;;;;;;;1.38;0.55;;;14.30;99.90;;;;;;6096845;23;20391;-93
2022/09/01 01:10:05;;;;;;;2.83;0.70;;;14.30;99.90;;;;;;6097650;23;20021;-94
2022/09/01 01:12:32;;;;;;;4.45;0.70;;;14.30;99.90;;;;;;6096969;23;20022;-93
2022/09/01 01:14:58;;;;;;;2.67;0.70;;;14.40;99.90;;;;;;6097983;23;20439;-94
2022/09/01 01:17:24;;;;;;;4.35;0.70;;;14.40;99.90;;;;;;6097500;23;20021;-93
2022/09/01 01:23:01;;;;;;;2.63;0.88;;;14.40;99.90;;;;;;6121458;23;20331;-93
2022/09/01 01:25:31;;;;;;;2.40;0.70;;;14.40;99.90;;;;;;6097002;23;20026;-94
2022/09/01 01:28:17;;;;;;;1.60;0.50;;;14.30;99.90;;;;;;6096148;23;20469;-94
2022/09/01 01:30:50;;;;;;;4.45;0.85;;;14.30;99.90;;;;;;6096714;23;20020;-94
2022/09/01 01:33:19;;;;;;;1.60;0.68;;;14.30;99.90;;;;;;6096549;23;20021;-94
2022/09/01 01:35:45;;;;;;;5.88;0.68;;;14.30;99.90;;;;;;6098255;23;20431;-93
2022/09/01 01:38:14;;;;;;;2.05;0.60;;;14.30;99.90;;;;;;6098312;23;20014;-93
2022/09/01 01:40:40;;;;;;;3.78;0.70;;;14.20;99.90;;;;;;6097381;23;20077;-94
2022/09/01 01:43:07;;;;;;;2.58;0.47;;;14.20;99.90;;;;;;6095984;23;20514;-94
2022/09/01 01:45:33;;;;;;;1.63;0.50;;;14.20;99.90;;;;;;6096252;23;20021;-94
2022/09/01 01:48:07;;;;;;;2.03;0.70;;;14.20;99.90;;;;;;6097958;23;20025;-93
2022/09/01 01:50:34;;;;;;;3.78;0.73;;;14.50;99.90;;;;;;6098598;23;20025;-93
2022/09/01 01:53:03;;;;;;;2.20;0.50;;;14.20;99.90;;;;;;6096993;23;20502;-93
2022/09/01 01:55:29;;;;;;;2.45;0.65;;;14.20;99.90;;;;;;6096320;23;20395;-94
2022/09/01 01:57:57;;;;;;;3.08;0.70;;;14.20;99.90;;;;;;6096323;23;20443;-94
2022/09/01 02:00:26;;;;;;;2.42;0.70;;;14.30;99.90;;;;;;6095894;23;20030;-93
2022/09/01 02:02:53;;;;;;;1.88;0.50;;;14.30;99.90;;;;;;6097551;23;20141;-93
2022/09/01 02:05:23;;;;;;;1.90;0.73;;;14.30;99.90;;;;;;6097364;23;20022;-93
2022/09/01 02:07:54;;;;;;;5.00;1.00;;;14.30;99.90;;;;;;6097492;23;20022;-94
2022/09/01 02:10:22;;;;;;;2.78;0.95;;;14.30;99.90;;;;;;6095885;23;20029;-93
2022/09/01 02:12:49;;;;;;;3.60;0.73;;;14.30;99.90;;;;;;6096428;23;20395;-93
2022/09/01 02:15:14;;;;;;;3.03;0.98;;;14.40;99.90;;;;;;6096204;23;20021;-94
2022/09/01 02:17:42;;;;;;;7.38;0.77;;;14.30;99.90;;;;;;6096114;23;20064;-93
2022/09/01 02:20:09;;;;;;;6.45;1.00;;;14.40;99.90;;;;;;6096118;23;20037;-93
2022/09/01 02:22:36;;;;;;;2.20;0.90;;;14.40;99.90;;;;;;6096501;23;20017;-93
2022/09/01 02:25:04;;;;;;;2.13;0.80;;;14.30;99.90;;;;;;6096157;23;20455;-93
2022/09/01 02:27:35;;;;;;;1.20;0.73;;;14.40;99.90;;;;;;6098475;23;20025;-93
2022/09/01 02:30:03;;;;;;;5.15;0.77;;;14.30;99.90;;;;;;6098086;23;20017;-94
2022/09/01 02:32:28;;;;;;;1.95;0.93;;;14.30;99.90;;;;;;6095862;23;20021;-93
2022/09/01 02:34:55;;;;;;;14.55;1.05;;;14.30;99.90;;;;;;6097534;23;20022;-93
2022/09/01 02:37:24;;;;;;;1.92;0.80;;;14.30;99.90;;;;;;6096062;23;20025;-94
2022/09/01 02:39:52;;;;;;;2.97;0.85;;;14.20;99.90;;;;;;6096797;23;20078;-93
2022/09/01 02:42:26;;;;;;;4.55;1.23;;;14.30;99.90;;;;;;6096885;23;20018;-93
2022/09/01 02:44:53;;;;;;;2.65;1.00;;;14.20;99.90;;;;;;6098324;23;20061;-93
2022/09/01 02:47:22;;;;;;;3.63;1.00;;;14.20;99.90;;;;;;6096567;23;20014;-93
2022/09/01 02:49:49;;;;;;;3.38;1.25;;;14.10;99.90;;;;;;6096793;23;20029;-95
2022/09/01 02:52:16;;;;;;;3.40;1.30;;;14.00;99.90;;;;;;6095994;23;20022;-94
2022/09/01 02:54:44;;;;;;;2.90;1.13;;;13.90;99.90;;;;;;6096944;23;20460;-93
2022/09/01 02:57:11;;;;;;;3.20;1.10;;;13.90;99.90;;;;;;6096001;23;20021;-94
2022/09/01 02:59:37;;;;;;;2.90;1.10;;;13.90;99.90;;;;;;6095473;23;20026;-94
2022/09/01 03:02:05;;;;;;;3.10;1.10;;;13.80;99.90;;;;;;6095893;23;20046;-94
2022/09/01 03:04:33;;;;;;;1.45;1.00;;;13.70;99.90;;;;;;6096191;23;20554;-94
2022/09/01 03:07:01;;;;;;;2.92;1.30;;;13.70;99.90;;;;;;6095551;23;20057;-93
2022/09/01 03:09:27;;;;;;;4.72;1.42;;;13.60;99.90;;;;;;6096380;23;20355;-93
2022/09/01 03:11:54;;;;;;;4.40;1.30;;;13.60;99.90;;;;;;6097528;23;20018;-94
2022/09/01 03:14:21;;;;;;;2.42;1.27;;;13.50;99.90;;;;;;6097537;23;20018;-93
2022/09/01 03:16:46;;;;;;;5.72;1.55;;;13.50;99.90;;;;;;6098146;23;20065;-93
2022/09/01 03:19:13;;;;;;;2.72;1.55;;;13.80;99.90;;;;;;6098208;23;20018;-92
2022/09/01 03:21:42;;;;;;;3.17;1.33;;;13.50;99.90;;;;;;6099284;23;20014;-93
2022/09/01 03:24:13;;;;;;;3.42;1.50;;;13.30;99.90;;;;;;6098259;23;20049;-92
2022/09/01 03:26:40;;;;;;;1.75;0.95;;;13.30;99.90;;;;;;6098706;23;20089;-93
2022/09/01 03:29:07;;;;;;;2.63;1.27;;;13.30;99.90;;;;;;6097685;23;20329;-94
2022/09/01 03:31:34;;;;;;;2.92;1.10;;;13.30;99.90;;;;;;6097764;23;20101;-94
2022/09/01 03:34:02;;;;;;;2.53;1.30;;;13.40;99.90;;;;;;6098968;23;20474;-94
2022/09/01 03:36:29;;;;;;;2.35;1.10;;;13.30;99.90;;;;;;6099277;23;20010;-93
2022/09/01 03:38:55;;;;;;;7.90;1.45;;;13.30;99.90;;;;;;6098757;23;20502;-94
2022/09/01 03:41:27;;;;;;;2.50;0.90;;;13.50;99.90;;;;;;6097234;23;20025;-94
2022/09/01 03:43:56;;;;;;;2.92;0.98;;;13.30;99.90;;;;;;6097624;23;20025;-93
2022/09/01 03:46:23;;;;;;;3.85;1.15;;;13.30;99.90;;;;;;6100035;23;20586;-93
2022/09/01 03:48:53;;;;;;;2.13;0.90;;;13.40;99.90;;;;;;6097753;23;20022;-94
2022/09/01 03:51:21;;;;;;;8.43;1.10;;;13.40;99.90;;;;;;6099475;23;20033;-94
2022/09/01 03:53:48;;;;;;;1.17;0.70;;;13.40;99.90;;;;;;6098505;23;20065;-93
2022/09/01 03:56:14;;;;;;;1.95;1.00;;;13.40;99.90;;;;;;6097644;23;20014;-93
2022/09/01 03:58:45;;;;;;;5.50;1.02;;;13.50;99.90;;;;;;6097517;23;20049;-94
2022/09/01 04:01:11;;;;;;;2.35;0.85;;;13.40;99.90;;;;;;6097512;23;20014;-93
2022/09/01 04:03:39;;;;;;;3.90;1.15;;;13.40;99.90;;;;;;6098032;23;20629;-93
2022/09/01 04:06:08;;;;;;;2.78;0.95;;;13.50;99.90;;;;;;6100419;23;20057;-93
2022/09/01 04:08:33;;;;;;;1.92;0.93;;;13.40;99.90;;;;;;6098369;23;20024;-94
2022/09/01 04:11:09;;;;;;;3.88;1.15;;;13.30;99.90;;;;;;6097320;23;20107;-94
2022/09/01 04:13:38;;;;;;;3.95;1.10;;;13.40;99.90;;;;;;6096996;23;20024;-93
2022/09/01 04:16:09;;;;;;;1.70;1.00;;;13.30;99.90;;;;;;6097504;23;20049;-94
2022/09/01 04:18:38;;;;;;;2.92;0.90;;;13.30;99.90;;;;;;6097301;23;20014;-94
2022/09/01 04:21:06;;;;;;;3.03;1.23;;;13.30;99.90;;;;;;6098052;23;20571;-93
2022/09/01 04:23:34;;;;;;;5.30;1.02;;;13.30;99.90;;;;;;6093264;23;20454;-94
2022/09/01 04:26:08;;;;;;;2.63;1.20;;;13.30;99.90;;;;;;6100029;23;20022;-93
2022/09/01 04:28:38;;;;;;;2.35;1.15;;;13.20;99.90;;;;;;6097154;23;20033;-93
2022/09/01 04:31:08;;;;;;;3.28;1.40;;;13.20;99.90;;;;;;6097008;23;20064;-95
2022/09/01 04:33:38;;;;;;;3.47;1.23;;;13.30;99.90;;;;;;6097109;23;20022;-93
2022/09/01 04:36:12;;;;;;;3.60;1.10;;;13.20;99.90;;;;;;6099464;23;20025;-92
2022/09/01 04:38:38;;;;;;;3.38;1.38;;;13.20;99.90;;;;;;6098393;23;20464;-92
2022/09/01 04:41:05;;;;;;;3.63;1.33;;;13.10;99.90;;;;;;6097471;23;20045;-92
2022/09/01 04:43:32;;;;;;;3.38;1.40;;;13.10;99.90;;;;;;6097927;23;20022;-93
2022/09/01 04:45:58;;;;;;;1.48;0.95;;;13.10;99.90;;;;;;6096377;23;20057;-93
2022/09/01 04:48:25;;;;;;;1.92;1.17;;;13.20;99.90;;;;;;6096838;23;20017;-94
2022/09/01 04:50:51;;;;;;;3.47;1.30;;;13.10;99.90;;;;;;6096410;23;20014;-93
2022/09/01 04:53:18;;;;;;;2.22;1.30;;;13.10;99.90;;;;;;6099826;23;20112;-93
2022/09/01 04:55:45;;;;;;;2.80;1.30;;;13.10;99.90;;;;;;6101962;23;20021;-92
2022/09/01 04:58:16;;;;;;;2.17;1.38;;;13.00;99.90;;;;;;6096920;23;20555;-94
2022/09/01 05:00:43;;;;;;;3.05;1.63;;;13.20;99.90;;;;;;6098159;23;20105;-93
2022/09/01 05:03:10;;;;;;;2.83;1.30;;;13.00;99.90;;;;;;6096336;23;20443;-93
2022/09/01 05:05:42;;;;;;;3.53;1.45;;;13.00;99.90;;;;;;6096594;23;20340;-94
2022/09/01 05:08:12;;;;;;;1.52;1.10;;;13.00;99.90;;;;;;6096852;23;20045;-91
2022/09/01 05:10:42;;;;;;;4.03;1.55;;;12.90;99.90;;;;;;6097327;23;20041;-92
2022/09/01 05:13:11;;;;;;;3.25;1.42;;;13.00;99.90;;;;;;6095279;23;20021;-91
2022/09/01 05:15:45;;;;;;;4.85;1.33;;;13.00;99.90;;;;;;6098848;23;20482;-92
2022/09/01 05:18:22;;;;;;;4.82;1.30;;;12.90;99.90;;;;;;6097791;23;20018;-91
2022/09/01 05:20:49;;;;;;;4.20;1.60;;;13.00;99.90;;;;;;6098939;23;20351;-92
2022/09/01 05:23:18;;;;;;;2.55;1.50;;;13.00;99.90;;;;;;6100309;23;20439;-93
2022/09/01 05:25:47;;;;;;;4.65;1.73;;;13.10;99.90;;;;;;6097146;23;20018;-92
2022/09/01 05:28:13;;;;;;;5.30;1.75;;;13.10;99.90;;;;;;6096250;23;20041;-93
2022/09/01 05:30:40;;;;;;;4.35;1.60;;;13.10;99.90;;;;;;6096577;23;20451;-92
2022/09/01 05:33:10;;;;;;;6.07;1.38;;;13.20;99.90;;;;;;6099844;23;20025;-92
2022/09/01 05:35:40;;;;;;;7.18;1.88;;;13.20;99.90;;;;;;6095163;23;20441;-93
2022/09/01 05:38:11;;;;;;;9.20;2.28;;;13.20;99.90;;;;;;6096959;23;20057;-93
2022/09/01 05:40:39;;;;;;;6.63;1.95;;;13.30;99.90;;;;;;6096516;23;20021;-93
2022/09/01 05:43:09;;;;;;;6.55;2.03;;;13.40;99.90;;;;;;6096436;23;20443;-92
2022/09/01 05:45:36;;;;;;;5.40;1.90;;;13.50;99.90;;;;;;6096253;23;20053;-90
2022/09/01 05:48:02;;;;;;;6.45;1.50;;;13.50;99.90;;;;;;6095950;23;20092;-91
2022/09/01 05:50:28;;;;;;;4.75;1.80;;;13.60;99.90;;;;;;6097683;23;20014;-90
2022/09/01 05:52:54;;;;;;;3.42;1.73;;;13.60;99.90;;;;;;6096855;23;20347;-91
2022/09/01 05:55:21;;;;;;;8.13;1.85;;;13.60;99.90;;;;;;6095678;23;20018;-92
2022/09/01 05:57:47;;;;;;;2.83;1.65;;;13.70;99.90;;;;;;6097115;23;20049;-92
2022/09/01 06:00:14;;;;;;;8.32;2.28;;;13.80;99.90;;;;;;6097976;23;20355;-92
2022/09/01 06:02:41;;;;;;;8.55;1.85;;;13.90;99.90;;;;;;6095637;23;20317;-91
2022/09/01 06:05:08;;;;;;;9.95;1.73;;;14.10;99.90;;;;;;6097280;23;20021;-91
2022/09/01 06:07:35;;;;;;;10.10;2.45;;;14.10;99.90;;;;;;6096286;23;20029;-91
2022/09/01 06:10:01;;;;;;;4.35;1.80;;;14.30;99.90;;;;;;6096972;23;20104;-91
2022/09/01 06:12:27;;;;;;;5.50;1.70;;;14.40;99.90;;;;;;6095371;23;20022;-92
2022/09/01 06:14:54;;;;;;;4.38;2.35;;;14.50;99.90;;;;;;6097244;23;20044;-92
2022/09/01 06:17:23;;;;;;;4.63;1.70;;;14.60;99.90;;;;;;6096740;23;20017;-92
2022/09/01 06:19:51;;;;;;;4.32;1.65;;;14.60;99.90;;;;;;6097702;23;20518;-91
2022/09/01 06:22:19;;;;;;;4.07;1.95;;;14.50;99.90;;;;;;6098049;23;20439;-93
2022/09/01 06:24:46;;;;;;;3.67;1.60;;;14.60;99.90;;;;;;6096839;23;20030;-92
2022/09/01 06:27:16;;;;;;;4.10;2.00;;;14.50;99.90;;;;;;6098845;23;20014;-92
2022/09/01 06:29:44;;;;;;;8.10;1.70;;;14.60;99.90;;;;;;6098788;23;20026;-92
2022/09/01 06:32:11;;;;;;;3.90;1.80;;;14.50;99.90;;;;;;6095680;23;20010;-91
2022/09/01 06:34:41;;;;;;;7.07;2.22;;;14.60;99.90;;;;;;6096391;23;20018;-92
2022/09/01 06:37:07;;;;;;;2.28;1.38;;;14.60;99.90;;;;;;6096135;23;20018;-91
2022/09/01 06:39:33;;;;;;;6.25;2.03;;;14.70;99.90;;;;;;6096068;23;20021;-92
2022/09/01 06:42:01;;;;;;;3.75;1.60;;;14.80;99.90;;;;;;6097439;23;20025;-91
2022/09/01 06:44:29;;;;;;;7.03;1.77;;;15.00;99.90;;;;;;6095119;23;20071;-92
2022/09/01 06:46:55;;;;;;;6.22;1.50;;;15.10;99.90;;;;;;6096376;23;20018;-92
2022/09/01 06:49:31;;;;;;;3.13;1.42;;;15.20;99.90;;;;;;6095956;23;20024;-92
2022/09/01 06:51:58;;;;;;;6.40;1.85;;;15.30;99.90;;;;;;6098583;23;20021;-91
2022/09/01 06:54:24;;;;;;;4.15;1.38;;;15.40;99.90;;;;;;6096779;23;20444;-91
2022/09/01 06:56:52;;;;;;;10.02;1.30;;;15.50;99.90;;;;;;6097155;23;20060;-91
2022/09/01 06:59:18;;;;;;;2.63;1.10;;;15.50;99.90;;;;;;6119511;23;20022;-91
2022/09/01 07:01:47;;;;;;;2.65;1.10;;;15.40;99.90;;;;;;6095977;23;20018;-92
2022/09/01 07:04:16;;;;;;;4.03;1.40;;;15.40;99.90;;;;;;6095338;23;20092;-91
2022/09/01 07:06:42;;;;;;;2.22;1.10;;;15.50;99.90;;;;;;6096136;23;20079;-91
2022/09/01 07:09:08;;;;;;;4.35;1.10;;;15.50;99.90;;;;;;6095710;23;20482;-91
2022/09/01 07:11:35;;;;;;;3.97;1.52;;;15.80;99.90;;;;;;6097037;23;20014;-91
2022/09/01 07:14:03;;;;;;;9.63;1.58;;;15.90;99.90;;;;;;6097297;23;20022;-91
2022/09/01 07:16:33;;;;;;;9.45;1.70;;;16.00;99.90;;;;;;6097640;23;20021;-91
2022/09/01 07:19:00;;;;;;;4.18;1.15;;;16.20;99.90;;;;;;6096297;23;20462;-92
2022/09/01 07:21:30;;;;;;;6.00;1.35;;;16.30;99.90;;;;;;6095822;23;20022;-93
2022/09/01 07:23:58;;;;;;;3.65;1.30;;;16.40;99.90;;;;;;6096971;23;20021;-93
2022/09/01 07:26:24;;;;;;;6.95;1.10;;;16.50;99.90;;;;;;6094968;23;20014;-91
2022/09/01 07:28:51;;;;;;;4.80;1.00;;;16.60;99.90;;;;;;6096966;23;20088;-92
2022/09/01 07:31:20;;;;;;;5.93;1.23;;;16.60;99.90;;;;;;6095937;23;20017;-92
2022/09/01 07:33:48;;;;;;;2.58;1.00;;;16.70;99.90;;;;;;6098551;23;20184;-93
2022/09/01 07:36:15;;;;;;;3.75;0.90;;;16.70;99.90;;;;;;6097278;23;20018;-93
2022/09/01 07:38:41;;;;;;;8.07;1.20;;;16.70;99.90;;;;;;6099075;23;20018;-92
2022/09/01 07:41:11;;;;;;;4.38;0.90;;;16.90;99.90;;;;;;6098701;23;20089;-92
2022/09/01 07:43:38;;;;;;;4.00;0.93;;;17.10;99.90;;;;;;6098897;23;20018;-93
2022/09/01 07:46:05;;;;;;;5.40;1.00;;;17.10;99.90;;;;;;6096090;23;20077;-93
2022/09/01 07:48:31;;;;;;;4.68;1.00;;;17.30;99.90;;;;;;6095506;23;20089;-92
2022/09/01 07:50:57;;;;;;;3.22;0.70;;;17.40;99.90;;;;;;6098254;23;20514;-92
2022/09/01 07:53:26;;;;;;;2.05;0.80;;;17.50;99.90;;;;;;6095611;23;20025;-93
2022/09/01 07:55:54;;;;;;;2.40;0.70;;;17.70;99.90;;;;;;6097708;23;20026;-92
2022/09/01 07:58:23;;;;;;;2.20;0.80;;;17.80;99.90;;;;;;6096889;23;20014;-93
2022/09/01 08:00:50;;;;;;;3.25;0.80;;;17.80;99.90;;;;;;6100540;23;20025;-92
2022/09/01 08:03:17;;;;;;;5.68;0.73;;;17.70;99.90;;;;;;6099242;23;20018;-92
2022/09/01 08:05:44;;;;;;;3.00;0.80;;;17.70;99.90;;;;;;6097902;23;20026;-92
2022/09/01 08:08:09;;;;;;;4.32;0.90;;;17.60;99.90;;;;;;6097024;23;20024;-93
2022/09/01 08:10:40;;;;;;;5.53;0.90;;;17.60;99.90;;;;;;6099187;23;20048;-93
2022/09/01 08:13:07;;;;;;;5.53;0.98;;;17.60;99.90;;;;;;6096532;23;20014;-93
2022/09/01 08:15:33;;;;;;;4.55;0.88;;;17.70;99.90;;;;;;6096823;23;20022;-93
2022/09/01 08:17:59;;;;;;;1.25;0.60;;;17.70;99.90;;;;;;6100071;23;20024;-93
2022/09/01 08:20:25;;;;;;;5.53;0.70;;;17.80;99.90;;;;;;6098002;23;20065;-93
2022/09/01 08:22:51;;;;;;;6.63;0.90;;;17.90;99.90;;;;;;6097069;23;20379;-92
2022/09/01 08:25:16;;;;;;;4.60;1.10;;;17.90;99.90;;;;;;6097320;23;20022;-93
2022/09/01 08:27:42;;;;;;;6.63;0.80;;;18.10;99.90;;;;;;6097462;23;20534;-92
2022/09/01 08:30:12;;;;;;;5.40;1.13;;;18.20;99.90;;;;;;6096980;23;20101;-92
2022/09/01 08:32:40;;;;;;;3.65;1.02;;;18.30;99.90;;;;;;6097243;23;20053;-92
2022/09/01 08:35:08;;;;;;;3.75;0.98;;;18.40;99.90;;;;;;6097875;23;20100;-92
2022/09/01 08:37:34;;;;;;;3.38;0.80;;;18.50;99.90;;;;;;6098422;23;20014;-92
2022/09/01 08:40:01;;;;;;;3.83;0.80;;;18.60;99.90;;;;;;6098120;23;20053;-93
2022/09/01 08:42:47;;;;;;;3.25;0.70;;;18.80;99.90;;;;;;6095520;23;20093;-93
2022/09/01 08:45:22;;;;;;;2.35;0.68;;;18.90;99.90;;;;;;6098718;23;20021;-92
2022/09/01 08:47:52;;;;;;;1.98;0.60;;;19.00;99.90;;;;;;6097763;23;20014;-92
2022/09/01 08:50:19;;;;;;;2.75;0.60;;;19.10;99.90;;;;;;6097952;23;20022;-92
2022/09/01 08:52:54;;;;;;;3.63;0.63;;;19.30;99.90;;;;;;6097543;23;20081;-93
2022/09/01 08:55:26;;;;;;;2.17;0.68;;;19.40;99.90;;;;;;6098078;23;20022;-93
2022/09/01 08:57:56;;;;;;;5.75;0.70;;;19.50;99.90;;;;;;6096997;23;20022;-93
2022/09/01 09:00:26;;;;;;;3.30;0.70;;;19.70;99.90;;;;;;6096984;23;20042;-93
2022/09/01 09:03:01;;;;;;;5.78;0.80;;;19.80;99.90;;;;;;6097305;23;20017;-93
2022/09/01 09:05:51;;;;;;;3.80;0.77;;;19.90;99.90;;;;;;6097285;23;20108;-93
2022/09/01 09:08:30;;;;;;;1.40;0.60;;;19.90;99.90;;;;;;6097215;23;20029;-93
2022/09/01 09:11:01;;;;;;;4.82;0.77;;;20.00;99.90;;;;;;6097585;23;20081;-92
2022/09/01 09:13:52;;;;;;;2.45;0.80;;;20.00;99.90;;;;;;6098487;23;20229;-93
2022/09/01 09:16:32;;;;;;;3.83;0.70;;;20.10;99.90;;;;;;6098191;23;20510;-92
2022/09/01 09:18:59;;;;;;;4.72;0.95;;;20.10;99.90;;;;;;6097452;23;20014;-93
2022/09/01 09:21:32;;;;;;;10.98;0.77;;;20.10;99.90;;;;;;6100183;23;20362;-93
2022/09/01 09:24:08;;;;;;;4.95;0.70;;;20.20;99.90;;;;;;6097581;23;20391;-92
2022/09/01 09:26:34;;;;;;;3.72;0.82;;;20.30;99.90;;;;;;6098288;23;20538;-92
2022/09/01 09:29:00;;;;;;;3.13;0.52;;;20.40;99.90;;;;;;6098956;23;20101;-92
2022/09/01 09:31:31;;;;;;;1.10;0.40;;;20.50;99.90;;;;;;6097725;23;20013;-93
2022/09/01 09:33:57;;;;;;;2.15;0.60;;;20.50;99.90;;;;;;6098087;23;20022;-93
2022/09/01 09:36:29;;;;;;;4.57;0.50;;;20.50;99.90;;;;;;6096346;23;20060;-93
2022/09/01 09:39:17;;;;;;;1.20;0.40;;;20.60;99.90;;;;;;6097267;23;20040;-93
2022/09/01 09:42:01;;;;;;;2.95;0.50;;;20.70;99.90;;;;;;6097423;23;20014;-93
2022/09/01 09:44:31;;;;;;;2.50;0.40;;;20.70;99.90;;;;;;6098812;23;20018;-93
2022/09/01 09:46:58;;;;;;;4.70;0.50;;;20.70;99.90;;;;;;6096260;23;20320;-93
2022/09/01 09:49:27;;;;;;;4.43;0.60;;;20.80;99.90;;;;;;6097028;23;20085;-92
2022/09/01 09:52:10;;;;;;;2.28;0.40;;;20.80;99.90;;;;;;6098833;23;20018;-92
2022/09/01 09:54:40;;;;;;;4.28;0.50;;;20.90;99.90;;;;;;6096687;23;20101;-94
2022/09/01 09:57:12;;;;;;;2.90;0.60;;;21.00;99.90;;;;;;6096883;23;20014;-92
2022/09/01 09:59:45;;;;;;;2.85;0.68;;;21.00;99.90;;;;;;6097384;23;20454;-91
2022/09/01 10:02:27;;;;;;;1.92;0.47;;;21.10;99.90;;;;;;6098350;23;20020;-93
2022/09/01 10:04:53;;;;;;;4.45;0.50;;;21.20;99.90;;;;;;6044995;23;20034;-93
2022/09/01 10:07:36;;;;;;;1.13;0.40;;;21.20;99.90;;;;;;6045923;23;20374;-92
2022/09/01 10:10:06;;;;;;;3.22;0.60;;;21.30;99.90;;;;;;6044061;23;20015;-92
2022/09/01 10:12:32;;;;;;;9.45;0.45;;;21.30;99.90;;;;;;6044538;23;20106;-93
2022/09/01 10:15:09;;;;;;;6.50;0.73;;;21.30;99.90;;;;;;6043678;23;20065;-93
2022/09/01 10:17:41;;;;;;;1.38;0.55;;;21.40;99.90;;;;;;6044130;23;20054;-92
2022/09/01 10:20:15;;;;;;;1.98;0.60;;;21.40;99.90;;;;;;6044256;23;20023;-90
2022/09/01 10:22:41;;;;;;;4.13;0.60;;;21.40;99.90;;;;;;6044326;23;20019;-94
2022/09/01 10:25:12;;;;;;;4.05;0.80;;;21.50;99.90;;;;;;6046725;23;20458;-92
2022/09/01 10:27:45;;;;;;;1.77;0.50;;;21.60;99.90;;;;;;6043933;23;20471;-92
2022/09/01 10:30:14;;;;;;;1.77;0.50;;;21.60;99.90;;;;;;6044058;23;20030;-93
2022/09/01 10:32:44;;;;;;;3.88;0.40;;;21.60;99.90;;;;;;6043844;23;20081;-92
2022/09/01 10:35:18;;;;;;;5.82;0.52;;;21.70;99.90;;;;;;6067626;23;20102;-92
2022/09/01 10:37:46;;;;;;;1.25;0.60;;;21.80;99.90;;;;;;6043717;23;20018;-92
2022/09/01 10:40:27;;;;;;;4.43;0.47;;;21.90;99.90;;;;;;6068042;23;20022;-92
2022/09/01 10:42:56;;;;;;;2.13;0.52;;;22.00;99.90;;;;;;6043578;23;20049;-92
2022/09/01 10:45:33;;;;;;;2.90;0.22;;;22.00;99.90;;;;;;6042557;23;20014;-92
2022/09/01 10:48:26;;;;;;;2.42;0.70;;;22.00;99.90;;;;;;6045331;23;20026;-91
2022/09/01 10:51:13;;;;;;;4.77;0.47;;;21.90;99.90;;;;;;6043195;23;20018;-91
2022/09/01 10:53:41;;;;;;;3.60;0.55;;;21.80;99.90;;;;;;6043786;23;20018;-91
2022/09/01 10:56:22;;;;;;;5.65;0.60;;;21.70;99.90;;;;;;6043399;23;20049;-91
2022/09/01 10:58:48;;;;;;;3.53;0.50;;;21.80;99.90;;;;;;6043566;23;20010;-92
2022/09/01 11:01:14;;;;;;;0.80;0.40;;;22.00;99.90;;;;;;6043575;23;20113;-91
2022/09/01 11:03:54;;;;;;;2.10;0.80;;;21.90;99.90;;;;;;6071134;23;20522;-91
2022/09/01 11:06:40;;;;;;;4.25;0.50;;;21.80;99.90;;;;;;6097683;23;20022;-91
2022/09/01 11:09:18;;;;;;;2.08;0.50;;;21.80;99.90;;;;;;6099040;23;20326;-91
2022/09/01 11:12:10;;;;;;;3.13;0.52;;;21.80;99.90;;;;;;6095828;23;20032;-90
2022/09/01 11:14:49;;;;;;;4.18;0.50;;;21.60;99.90;;;;;;6096045;23;20025;-91
2022/09/01 11:17:25;;;;;;;2.33;0.30;;;21.70;99.90;;;;;;6097389;23;20029;-91
2022/09/01 11:20:21;;;;;;;1.85;0.63;;;21.60;99.90;;;;;;6096427;23;20451;-90
2022/09/01 11:22:56;;;;;;;5.82;0.50;;;21.60;99.90;;;;;;6098143;23;20029;-91
2022/09/01 11:25:40;;;;;;;2.08;0.60;;;21.90;99.90;;;;;;6095803;23;20018;-92
2022/09/01 11:28:30;;;;;;;2.08;0.38;;;22.20;99.90;;;;;;6096193;23;20100;-91
2022/09/01 11:31:01;;;;;;;2.83;0.43;;;22.30;99.90;;;;;;6098323;23;20064;-91
2022/09/01 11:33:39;;;;;;;2.20;0.30;;;22.20;99.90;;;;;;6098114;23;20022;-90
2022/09/01 11:36:15;;;;;;;3.30;0.47;;;21.90;99.90;;;;;;6123863;23;20053;-90
2022/09/01 11:38:47;;;;;;;3.05;0.47;;;21.80;99.90;;;;;;6097569;23;20026;-90
2022/09/01 11:41:25;;;;;;;2.42;0.50;;;21.80;99.90;;;;;;6097293;23;20013;-90
2022/09/01 11:43:56;;;;;;;2.60;0.57;;;21.90;99.90;;;;;;6098922;23;20045;-91
2022/09/01 11:46:28;;;;;;;3.15;0.50;;;21.80;99.90;;;;;;6097193;23;20028;-91
2022/09/01 11:48:55;;;;;;;5.07;0.50;;;21.60;99.90;;;;;;6098457;23;20029;-91
2022/09/01 11:51:21;;;;;;;9.13;0.57;;;21.60;99.90;;;;;;6097983;23;20096;-92
2022/09/01 11:53:46;;;;;;;3.10;0.60;;;21.50;99.90;;;;;;6097761;23;20061;-92
2022/09/01 11:56:17;;;;;;;2.25;0.30;;;21.40;99.90;;;;;;6099286;23;20022;-92
2022/09/01 11:58:43;;;;;;;2.78;0.40;;;21.20;99.90;;;;;;6098320;23;20466;-92
2022/09/01 12:01:18;;;;;;;1.98;0.40;;;21.10;99.90;;;;;;6096648;23;20014;-90
2022/09/01 12:03:45;;;;;;;6.80;0.52;;;21.20;99.90;;;;;;6097557;23;20021;-91
2022/09/01 12:06:20;;;;;;;0.65;0.30;;;21.30;99.90;;;;;;6097234;23;20156;-91
2022/09/01 12:08:57;;;;;;;1.77;0.50;;;21.60;99.90;;;;;;6097303;23;20021;-90
2022/09/01 12:11:29;;;;;;;2.20;0.40;;;22.00;99.90;;;;;;6099390;23;20033;-90
2022/09/01 12:14:01;;;;;;;4.07;1.00;;;22.00;99.90;;;;;;6096894;23;20014;-90
2022/09/01 12:16:30;;;;;;;4.85;0.35;;;21.90;99.90;;;;;;6096359;23;20014;-93
2022/09/01 12:18:58;;;;;;;3.40;0.63;;;21.70;99.90;;;;;;6098139;23;20014;-91
2022/09/01 12:21:31;;;;;;;3.40;0.38;;;21.80;99.90;;;;;;6099815;23;20014;-92
2022/09/01 12:24:13;;;;;;;;;;;21.80;99.90;;;;;;6100305;23;20025;-92
2022/09/01 12:26:39;;;;;;;8.80;0.60;;;21.90;99.90;;;;;;6099934;23;19924;-91
2022/09/01 12:29:05;;;;;;;2.10;0.43;;;22.10;99.90;;;;;;6097368;23;20022;-91
2022/09/01 12:31:32;;;;;;;5.93;0.40;;;22.10;99.60;;;;;;6096977;23;20018;-91
2022/09/01 12:34:00;;;;;;;3.38;0.40;;;22.20;99.40;;;;;;6097849;23;20032;-92
2022/09/01 12:36:33;;;;;;;4.53;0.40;;;22.40;99.30;;;;;;6095625;23;20061;-90
2022/09/01 12:39:20;;;;;;;1.65;0.50;;;22.50;98.40;;;;;;6099239;23;20021;-93
2022/09/01 12:42:05;;;;;;;1.35;0.40;;;22.50;98.20;;;;;;6097615;23;20014;-90
2022/09/01 12:44:45;;;;;;;1.17;0.40;;;22.40;98.10;;;;;;6097306;23;20013;-91
2022/09/01 12:47:32;;;;;;;1.73;0.60;;;22.50;98.00;;;;;;6096916;23;20022;-90
2022/09/01 12:49:59;;;;;;;2.20;0.50;;;22.50;97.70;;;;;;6099281;23;20053;-91
2022/09/01 12:52:26;;;;;;;2.70;0.47;;;22.60;97.20;;;;;;6098500;23;20025;-91
2022/09/01 12:54:58;;;;;;;2.70;0.75;;;22.70;97.10;;;;;;6098445;23;20094;-91
2022/09/01 12:57:31;;;;;;;1.20;0.32;;;22.70;96.10;;;;;;6096030;23;20363;-90
2022/09/01 13:00:10;;;;;;;2.45;0.30;;;22.70;96.00;;;;;;6098567;23;20022;-90
2022/09/01 13:02:37;;;;;;;1.30;0.40;;;22.60;96.00;;;;;;6097380;23;20018;-91
2022/09/01 13:05:26;;;;;;;1.20;0.40;;;22.50;96.40;;;;;;6072850;23;20026;-91